sensor_id;sensor_type;location;lat;lon;timestamp;pressure;altitude;pressure_sealevel;temperature;humidity
43745;BME280;29359;53.048;8.732;2023-04-07T00:00:09;101696.00;;;5.79;76.13
43745;BME280;29359;53.048;8.732;2023-04-07T00:02:11;101695.13;;;5.76;76.18
43745;BME280;29359;53.048;8.732;2023-04-07T00:04:12;101695.09;;;5.73;76.69
43745;BME280;29359;53.048;8.732;2023-04-07T00:06:14;101691.59;;;5.71;76.53
43745;BME280;29359;53.048;8.732;2023-04-07T00:08:16;101685.47;;;5.67;76.80
43745;BME280;29359;53.048;8.732;2023-04-07T00:10:17;101693.31;;;5.64;76.58
43745;BME280;29359;53.048;8.732;2023-04-07T00:12:19;101690.63;;;5.61;76.31
43745;BME280;29359;53.048;8.732;2023-04-07T00:14:20;101694.09;;;5.57;76.20
43745;BME280;29359;53.048;8.732;2023-04-07T00:16:22;101692.34;;;5.53;76.54
43745;BME280;29359;53.048;8.732;2023-04-07T00:18:24;101694.06;;;5.49;76.57
43745;BME280;29359;53.048;8.732;2023-04-07T00:20:26;101690.56;;;5.47;77.14
43745;BME280;29359;53.048;8.732;2023-04-07T00:22:27;101687.03;;;5.44;76.26
43745;BME280;29359;53.048;8.732;2023-04-07T00:24:29;101686.16;;;5.40;76.72
43745;BME280;29359;53.048;8.732;2023-04-07T00:26:35;101682.63;;;5.36;77.41
43745;BME280;29359;53.048;8.732;2023-04-07T00:28:36;101685.25;;;5.33;76.76
43745;BME280;29359;53.048;8.732;2023-04-07T00:30:38;101692.22;;;5.31;77.38
43745;BME280;29359;53.048;8.732;2023-04-07T00:32:39;101689.56;;;5.28;77.60
43745;BME280;29359;53.048;8.732;2023-04-07T00:34:41;101685.16;;;5.23;77.69
43745;BME280;29359;53.048;8.732;2023-04-07T00:36:42;101690.34;;;5.20;77.67
43745;BME280;29359;53.048;8.732;2023-04-07T00:38:44;101694.69;;;5.18;76.99
43745;BME280;29359;53.048;8.732;2023-04-07T00:40:45;101693.81;;;5.16;76.84
43745;BME280;29359;53.048;8.732;2023-04-07T00:42:47;101694.66;;;5.12;77.27
43745;BME280;29359;53.048;8.732;2023-04-07T00:44:48;101705.09;;;5.09;77.22
43745;BME280;29359;53.048;8.732;2023-04-07T00:46:50;101695.47;;;5.06;77.94
43745;BME280;29359;53.048;8.732;2023-04-07T00:48:51;101693.72;;;5.03;78.07
43745;BME280;29359;53.048;8.732;2023-04-07T00:50:53;101690.19;;;5.00;77.09
43745;BME280;29359;53.048;8.732;2023-04-07T00:52:54;101690.19;;;4.97;77.65
43745;BME280;29359;53.048;8.732;2023-04-07T00:54:58;101691.03;;;4.93;77.31
43745;BME280;29359;53.048;8.732;2023-04-07T00:57:00;101687.50;;;4.88;77.82
43745;BME280;29359;53.048;8.732;2023-04-07T00:59:04;101692.72;;;4.86;77.68
43745;BME280;29359;53.048;8.732;2023-04-07T01:01:11;101698.78;;;4.84;77.92
43745;BME280;29359;53.048;8.732;2023-04-07T01:03:20;101695.28;;;4.80;78.29
43745;BME280;29359;53.048;8.732;2023-04-07T01:05:52;101695.19;;;4.76;78.39
43745;BME280;29359;53.048;8.732;2023-04-07T01:08:02;101694.28;;;4.72;78.00
43745;BME280;29359;53.048;8.732;2023-04-07T01:10:11;101696.88;;;4.67;77.83
43745;BME280;29359;53.048;8.732;2023-04-07T01:12:25;101689.00;;;4.66;78.35
43745;BME280;29359;53.048;8.732;2023-04-07T01:14:33;101695.09;;;4.63;78.27
43745;BME280;29359;53.048;8.732;2023-04-07T01:16:41;101688.06;;;4.59;78.62
43745;BME280;29359;53.048;8.732;2023-04-07T01:18:47;101688.91;;;4.57;78.53
43745;BME280;29359;53.048;8.732;2023-04-07T01:20:53;101683.69;;;4.55;78.43
43745;BME280;29359;53.048;8.732;2023-04-07T01:23:01;101683.66;;;4.52;78.91
43745;BME280;29359;53.048;8.732;2023-04-07T01:30:00;101681.00;;;4.48;78.80
43745;BME280;29359;53.048;8.732;2023-04-07T01:32:04;101682.72;;;4.46;79.17
43745;BME280;29359;53.048;8.732;2023-04-07T01:34:09;101681.84;;;4.45;78.62
43745;BME280;29359;53.048;8.732;2023-04-07T01:36:12;101683.56;;;4.43;78.41
43745;BME280;29359;53.048;8.732;2023-04-07T01:38:16;101683.53;;;4.41;78.35
43745;BME280;29359;53.048;8.732;2023-04-07T01:40:19;101685.25;;;4.39;79.38
43745;BME280;29359;53.048;8.732;2023-04-07T01:42:21;101684.38;;;4.37;78.55
43745;BME280;29359;53.048;8.732;2023-04-07T01:44:24;101686.13;;;4.37;78.88
43745;BME280;29359;53.048;8.732;2023-04-07T01:46:26;101684.34;;;4.34;78.75
43745;BME280;29359;53.048;8.732;2023-04-07T01:48:27;101689.53;;;4.33;78.31
43745;BME280;29359;53.048;8.732;2023-04-07T01:50:29;101682.53;;;4.32;78.96
43745;BME280;29359;53.048;8.732;2023-04-07T01:52:34;101678.19;;;4.31;78.62
43745;BME280;29359;53.048;8.732;2023-04-07T01:54:36;101678.13;;;4.28;78.73
43745;BME280;29359;53.048;8.732;2023-04-07T01:56:38;101693.81;;;4.28;78.24
43745;BME280;29359;53.048;8.732;2023-04-07T01:58:39;101689.44;;;4.25;78.83
43745;BME280;29359;53.048;8.732;2023-04-07T02:00:41;101685.94;;;4.23;78.70
43745;BME280;29359;53.048;8.732;2023-04-07T02:02:45;101688.53;;;4.22;78.59
43745;BME280;29359;53.048;8.732;2023-04-07T02:04:57;101689.38;;;4.21;78.45
43745;BME280;29359;53.048;8.732;2023-04-07T02:07:07;101691.13;;;4.19;78.76
43745;BME280;29359;53.048;8.732;2023-04-07T02:09:12;101693.69;;;4.16;78.19
43745;BME280;29359;53.048;8.732;2023-04-07T02:11:17;101694.56;;;4.15;78.38
43745;BME280;29359;53.048;8.732;2023-04-07T02:13:21;101695.41;;;4.12;79.10
43745;BME280;29359;53.048;8.732;2023-04-07T02:15:23;101695.38;;;4.10;78.61
43745;BME280;29359;53.048;8.732;2023-04-07T02:17:27;101690.13;;;4.09;78.31
43745;BME280;29359;53.048;8.732;2023-04-07T02:19:29;101699.66;;;4.05;78.61
43745;BME280;29359;53.048;8.732;2023-04-07T02:21:32;101694.44;;;4.04;78.65
43745;BME280;29359;53.048;8.732;2023-04-07T02:23:34;101696.16;;;4.02;78.88
43745;BME280;29359;53.048;8.732;2023-04-07T02:25:36;101694.38;;;3.99;78.64
43745;BME280;29359;53.048;8.732;2023-04-07T02:27:40;101692.59;;;3.97;78.37
43745;BME280;29359;53.048;8.732;2023-04-07T02:29:42;101690.81;;;3.93;78.25
43745;BME280;29359;53.048;8.732;2023-04-07T02:31:43;101689.03;;;3.90;78.91
43745;BME280;29359;53.048;8.732;2023-04-07T02:33:45;101687.25;;;3.89;78.93
43745;BME280;29359;53.048;8.732;2023-04-07T02:35:46;101685.50;;;3.88;78.67
43745;BME280;29359;53.048;8.732;2023-04-07T02:37:48;101682.84;;;3.85;78.68
43745;BME280;29359;53.048;8.732;2023-04-07T02:39:50;101687.16;;;3.83;78.87
43745;BME280;29359;53.048;8.732;2023-04-07T02:41:52;101691.47;;;3.79;79.33
43745;BME280;29359;53.048;8.732;2023-04-07T02:43:53;101686.25;;;3.78;79.02
43745;BME280;29359;53.048;8.732;2023-04-07T02:45:55;101694.06;;;3.76;78.90
43745;BME280;29359;53.048;8.732;2023-04-07T02:47:57;101686.19;;;3.75;78.98
43745;BME280;29359;53.048;8.732;2023-04-07T02:49:59;101686.19;;;3.75;79.16
43745;BME280;29359;53.048;8.732;2023-04-07T02:52:00;101694.00;;;3.73;79.43
43745;BME280;29359;53.048;8.732;2023-04-07T02:54:02;101692.22;;;3.69;79.23
43745;BME280;29359;53.048;8.732;2023-04-07T02:56:03;101687.84;;;3.68;79.30
43745;BME280;29359;53.048;8.732;2023-04-07T02:58:05;101689.56;;;3.66;79.32
43745;BME280;29359;53.048;8.732;2023-04-07T03:00:07;101693.06;;;3.67;79.05
43745;BME280;29359;53.048;8.732;2023-04-07T03:02:08;101698.28;;;3.67;79.36
43745;BME280;29359;53.048;8.732;2023-04-07T03:04:10;101700.00;;;3.66;78.96
43745;BME280;29359;53.048;8.732;2023-04-07T03:06:13;101697.38;;;3.65;78.96
43745;BME280;29359;53.048;8.732;2023-04-07T03:08:14;101699.97;;;3.63;79.10
43745;BME280;29359;53.048;8.732;2023-04-07T03:10:16;101695.59;;;3.62;79.30
43745;BME280;29359;53.048;8.732;2023-04-07T03:12:17;101700.81;;;3.61;79.29
43745;BME280;29359;53.048;8.732;2023-04-07T03:14:19;101704.28;;;3.60;79.27
43745;BME280;29359;53.048;8.732;2023-04-07T03:16:20;101699.88;;;3.57;79.26
43745;BME280;29359;53.048;8.732;2023-04-07T03:18:22;101700.75;;;3.56;79.23
43745;BME280;29359;53.048;8.732;2023-04-07T03:20:24;101693.78;;;3.55;79.22
43745;BME280;29359;53.048;8.732;2023-04-07T03:22:25;101694.63;;;3.54;79.27
43745;BME280;29359;53.048;8.732;2023-04-07T03:24:27;101694.59;;;3.53;79.53
43745;BME280;29359;53.048;8.732;2023-04-07T03:26:28;101699.78;;;3.50;79.10
43745;BME280;29359;53.048;8.732;2023-04-07T03:28:30;101700.63;;;3.47;79.19
43745;BME280;29359;53.048;8.732;2023-04-07T03:30:31;101700.63;;;3.47;79.15
43745;BME280;29359;53.048;8.732;2023-04-07T03:32:33;101697.06;;;3.43;79.37
43745;BME280;29359;53.048;8.732;2023-04-07T03:34:34;101702.28;;;3.43;78.92
43745;BME280;29359;53.048;8.732;2023-04-07T03:36:36;101703.97;;;3.41;78.82
43745;BME280;29359;53.048;8.732;2023-04-07T03:38:37;101700.47;;;3.39;79.06
43745;BME280;29359;53.048;8.732;2023-04-07T03:40:39;101696.09;;;3.37;78.96
43745;BME280;29359;53.048;8.732;2023-04-07T03:42:41;101693.47;;;3.35;79.00
43745;BME280;29359;53.048;8.732;2023-04-07T03:44:43;101701.25;;;3.34;79.13
43745;BME280;29359;53.048;8.732;2023-04-07T03:46:44;101700.38;;;3.32;79.29
43745;BME280;29359;53.048;8.732;2023-04-07T03:48:47;101700.31;;;3.29;78.71
43745;BME280;29359;53.048;8.732;2023-04-07T03:50:48;101698.56;;;3.28;79.19
43745;BME280;29359;53.048;8.732;2023-04-07T03:52:50;101704.63;;;3.25;78.87
43745;BME280;29359;53.048;8.732;2023-04-07T03:54:51;101702.84;;;3.23;78.89
43745;BME280;29359;53.048;8.732;2023-04-07T03:56:53;101712.41;;;3.22;79.07
43745;BME280;29359;53.048;8.732;2023-04-07T03:58:54;101710.63;;;3.20;79.33
43745;BME280;29359;53.048;8.732;2023-04-07T04:00:56;101714.94;;;3.18;78.91
43745;BME280;29359;53.048;8.732;2023-04-07T04:02:59;101715.75;;;3.15;78.84
43745;BME280;29359;53.048;8.732;2023-04-07T04:05:01;101710.50;;;3.12;79.10
43745;BME280;29359;53.048;8.732;2023-04-07T04:07:02;101718.31;;;3.12;79.17
43745;BME280;29359;53.048;8.732;2023-04-07T04:09:04;101718.28;;;3.09;79.16
43745;BME280;29359;53.048;8.732;2023-04-07T04:11:05;101716.53;;;3.08;79.22
43745;BME280;29359;53.048;8.732;2023-04-07T04:13:07;101718.22;;;3.06;79.40
43745;BME280;29359;53.048;8.732;2023-04-07T04:15:09;101721.69;;;3.05;79.08
43745;BME280;29359;53.048;8.732;2023-04-07T04:17:11;101712.94;;;3.03;79.28
43745;BME280;29359;53.048;8.732;2023-04-07T04:19:12;101720.72;;;3.01;79.21
43745;BME280;29359;53.048;8.732;2023-04-07T04:21:14;101721.59;;;3.00;79.22
43745;BME280;29359;53.048;8.732;2023-04-07T04:23:15;101721.53;;;2.97;79.25
43745;BME280;29359;53.048;8.732;2023-04-07T04:25:17;101723.22;;;2.95;78.95
43745;BME280;29359;53.048;8.732;2023-04-07T04:27:19;101724.06;;;2.93;79.22
43745;BME280;29359;53.048;8.732;2023-04-07T04:29:20;101725.75;;;2.91;79.19
43745;BME280;29359;53.048;8.732;2023-04-07T04:31:22;101731.84;;;2.90;79.28
43745;BME280;29359;53.048;8.732;2023-04-07T04:33:23;101730.06;;;2.87;79.34
43745;BME280;29359;53.048;8.732;2023-04-07T04:35:25;101728.28;;;2.86;79.49
43745;BME280;29359;53.048;8.732;2023-04-07T04:37:27;101733.50;;;2.84;79.16
43745;BME280;29359;53.048;8.732;2023-04-07T04:39:28;101740.44;;;2.84;79.21
43745;BME280;29359;53.048;8.732;2023-04-07T04:41:30;101739.56;;;2.83;79.52
43745;BME280;29359;53.048;8.732;2023-04-07T04:43:31;101737.78;;;2.82;79.13
43745;BME280;29359;53.048;8.732;2023-04-07T04:45:33;101741.25;;;2.81;79.45
43745;BME280;29359;53.048;8.732;2023-04-07T04:47:35;101746.44;;;2.80;78.98
43745;BME280;29359;53.048;8.732;2023-04-07T04:49:39;101748.19;;;2.79;79.33
43745;BME280;29359;53.048;8.732;2023-04-07T04:51:41;101747.28;;;2.79;78.99
43745;BME280;29359;53.048;8.732;2023-04-07T04:53:42;101751.63;;;2.78;79.14
43745;BME280;29359;53.048;8.732;2023-04-07T04:55:44;101752.50;;;2.77;79.03
43745;BME280;29359;53.048;8.732;2023-04-07T04:57:48;101759.47;;;2.78;79.10
43745;BME280;29359;53.048;8.732;2023-04-07T04:59:49;101756.84;;;2.78;79.07
43745;BME280;29359;53.048;8.732;2023-04-07T05:01:51;101753.38;;;2.78;79.11
43745;BME280;29359;53.048;8.732;2023-04-07T05:03:53;101756.00;;;2.79;78.92
43745;BME280;29359;53.048;8.732;2023-04-07T05:05:55;101759.47;;;2.80;79.01
43745;BME280;29359;53.048;8.732;2023-04-07T05:07:57;101759.47;;;2.80;78.81
43745;BME280;29359;53.048;8.732;2023-04-07T05:09:58;101762.06;;;2.78;79.12
43745;BME280;29359;53.048;8.732;2023-04-07T05:12:00;101764.69;;;2.80;78.78
43745;BME280;29359;53.048;8.732;2023-04-07T05:14:02;101769.03;;;2.79;78.82
43745;BME280;29359;53.048;8.732;2023-04-07T05:16:04;101779.50;;;2.81;78.58
43745;BME280;29359;53.048;8.732;2023-04-07T05:18:06;101772.59;;;2.84;78.52
43745;BME280;29359;53.048;8.732;2023-04-07T05:20:09;101773.50;;;2.87;78.55
43745;BME280;29359;53.048;8.732;2023-04-07T05:22:11;101781.38;;;2.90;78.36
43745;BME280;29359;53.048;8.732;2023-04-07T05:24:12;101782.31;;;2.93;78.25
43745;BME280;29359;53.048;8.732;2023-04-07T05:26:14;101788.44;;;2.95;77.94
43745;BME280;29359;53.048;8.732;2023-04-07T05:28:16;101775.44;;;2.98;77.56
43745;BME280;29359;53.048;8.732;2023-04-07T05:30:17;101778.16;;;3.03;77.59
43745;BME280;29359;53.048;8.732;2023-04-07T05:32:19;101779.09;;;3.06;77.57
43745;BME280;29359;53.048;8.732;2023-04-07T05:34:20;101780.91;;;3.10;77.40
43745;BME280;29359;53.048;8.732;2023-04-07T05:36:22;101786.22;;;3.15;77.34
43745;BME280;29359;53.048;8.732;2023-04-07T05:38:24;101788.00;;;3.19;76.95
43745;BME280;29359;53.048;8.732;2023-04-07T05:40:26;101788.94;;;3.23;76.91
43745;BME280;29359;53.048;8.732;2023-04-07T05:42:27;101788.16;;;3.27;76.55
43745;BME280;29359;53.048;8.732;2023-04-07T05:44:29;101792.53;;;3.29;76.38
43745;BME280;29359;53.048;8.732;2023-04-07T05:46:30;101795.25;;;3.35;76.02
43745;BME280;29359;53.048;8.732;2023-04-07T05:48:32;101801.38;;;3.37;75.37
43745;BME280;29359;53.048;8.732;2023-04-07T05:50:33;101800.59;;;3.43;75.28
43745;BME280;29359;53.048;8.732;2023-04-07T05:52:35;101798.91;;;3.46;75.44
43745;BME280;29359;53.048;8.732;2023-04-07T05:54:36;101802.50;;;3.52;75.31
43745;BME280;29359;53.048;8.732;2023-04-07T05:56:39;101801.69;;;3.56;75.05
43745;BME280;29359;53.048;8.732;2023-04-07T05:58:41;101803.50;;;3.60;75.53
43745;BME280;29359;53.048;8.732;2023-04-07T06:00:42;101800.94;;;3.64;75.46
43745;BME280;29359;53.048;8.732;2023-04-07T06:02:44;101807.97;;;3.68;75.58
43745;BME280;29359;53.048;8.732;2023-04-07T06:04:46;101806.28;;;3.72;75.36
43745;BME280;29359;53.048;8.732;2023-04-07T06:06:47;101813.34;;;3.77;75.50
43745;BME280;29359;53.048;8.732;2023-04-07T06:08:49;101814.25;;;3.81;75.25
43745;BME280;29359;53.048;8.732;2023-04-07T06:10:51;101820.41;;;3.85;75.03
43745;BME280;29359;53.048;8.732;2023-04-07T06:12:52;101814.44;;;3.90;75.06
43745;BME280;29359;53.048;8.732;2023-04-07T06:14:54;101825.78;;;3.94;75.11
43745;BME280;29359;53.048;8.732;2023-04-07T06:16:56;101823.25;;;3.98;74.88
43745;BME280;29359;53.048;8.732;2023-04-07T06:18:58;101832.91;;;4.04;74.42
43745;BME280;29359;53.048;8.732;2023-04-07T06:21:00;101826.88;;;4.08;74.96
43745;BME280;29359;53.048;8.732;2023-04-07T06:23:01;101826.94;;;4.13;74.63
43745;BME280;29359;53.048;8.732;2023-04-07T06:25:03;101826.97;;;4.16;74.79
43745;BME280;29359;53.048;8.732;2023-04-07T06:27:04;101828.78;;;4.21;74.50
43745;BME280;29359;53.048;8.732;2023-04-07T06:29:06;101834.91;;;4.23;74.04
43745;BME280;29359;53.048;8.732;2023-04-07T06:31:08;101841.09;;;4.30;73.60
43745;BME280;29359;53.048;8.732;2023-04-07T06:33:10;101842.03;;;4.33;73.81
43745;BME280;29359;53.048;8.732;2023-04-07T06:35:11;101839.50;;;4.38;74.03
43745;BME280;29359;53.048;8.732;2023-04-07T06:37:13;101847.41;;;4.43;73.54
43745;BME280;29359;53.048;8.732;2023-04-07T06:39:17;101850.09;;;4.49;73.19
43745;BME280;29359;53.048;8.732;2023-04-07T06:41:18;101853.63;;;4.54;73.27
43745;BME280;29359;53.048;8.732;2023-04-07T06:43:20;101850.22;;;4.59;73.11
43745;BME280;29359;53.048;8.732;2023-04-07T06:45:21;101856.38;;;4.64;74.24
43745;BME280;29359;53.048;8.732;2023-04-07T06:47:23;101852.09;;;4.69;73.26
43745;BME280;29359;53.048;8.732;2023-04-07T06:49:25;101859.13;;;4.75;73.36
43745;BME280;29359;53.048;8.732;2023-04-07T06:51:26;101853.97;;;4.80;73.44
43745;BME280;29359;53.048;8.732;2023-04-07T06:53:28;101855.78;;;4.85;73.25
43745;BME280;29359;53.048;8.732;2023-04-07T06:55:29;101857.59;;;4.91;72.83
43745;BME280;29359;53.048;8.732;2023-04-07T06:57:31;101863.78;;;4.97;73.03
43745;BME280;29359;53.048;8.732;2023-04-07T06:59:33;101860.34;;;5.04;71.91
43745;BME280;29359;53.048;8.732;2023-04-07T07:01:34;101861.28;;;5.11;72.34
43745;BME280;29359;53.048;8.732;2023-04-07T07:03:38;101861.34;;;5.17;71.32
43745;BME280;29359;53.048;8.732;2023-04-07T07:05:39;101869.31;;;5.23;72.31
43745;BME280;29359;53.048;8.732;2023-04-07T07:07:41;101871.97;;;5.28;72.46
43745;BME280;29359;53.048;8.732;2023-04-07T07:09:42;101872.88;;;5.33;71.98
43745;BME280;29359;53.048;8.732;2023-04-07T07:11:44;101869.47;;;5.42;71.09
43745;BME280;29359;53.048;8.732;2023-04-07T07:13:46;101872.16;;;5.51;70.63
43745;BME280;29359;53.048;8.732;2023-04-07T07:15:49;101869.63;;;5.58;69.65
43745;BME280;29359;53.048;8.732;2023-04-07T07:17:50;101873.22;;;5.66;69.32
43745;BME280;29359;53.048;8.732;2023-04-07T07:19:52;101873.28;;;5.74;68.96
43745;BME280;29359;53.048;8.732;2023-04-07T07:21:53;101878.56;;;5.80;68.29
43745;BME280;29359;53.048;8.732;2023-04-07T07:23:56;101875.09;;;5.86;68.30
43745;BME280;29359;53.048;8.732;2023-04-07T07:25:57;101882.06;;;5.84;70.91
43745;BME280;29359;53.048;8.732;2023-04-07T07:27:59;101890.81;;;5.86;71.34
43745;BME280;29359;53.048;8.732;2023-04-07T07:30:00;101890.94;;;5.95;69.79
43745;BME280;29359;53.048;8.732;2023-04-07T07:32:02;101890.13;;;6.04;68.93
43745;BME280;29359;53.048;8.732;2023-04-07T07:34:03;101885.84;;;6.13;68.08
43745;BME280;29359;53.048;8.732;2023-04-07T07:36:06;101894.63;;;6.21;68.17
43745;BME280;29359;53.048;8.732;2023-04-07T07:38:07;101889.44;;;6.27;67.91
43745;BME280;29359;53.048;8.732;2023-04-07T07:40:09;101892.97;;;6.34;68.07
43745;BME280;29359;53.048;8.732;2023-04-07T07:42:11;101900.88;;;6.40;68.50
43745;BME280;29359;53.048;8.732;2023-04-07T07:44:13;101892.16;;;6.46;67.71
43745;BME280;29359;53.048;8.732;2023-04-07T07:46:14;101891.34;;;6.51;68.29
43745;BME280;29359;53.048;8.732;2023-04-07T07:48:16;101901.00;;;6.58;67.92
43745;BME280;29359;53.048;8.732;2023-04-07T07:50:17;101898.38;;;6.61;68.89
43745;BME280;29359;53.048;8.732;2023-04-07T07:52:19;101902.75;;;6.63;69.11
43745;BME280;29359;53.048;8.732;2023-04-07T07:54:23;101899.28;;;6.68;68.29
43745;BME280;29359;53.048;8.732;2023-04-07T07:56:25;101896.69;;;6.76;67.66
43745;BME280;29359;53.048;8.732;2023-04-07T07:58:27;101901.09;;;6.86;67.25
43745;BME280;29359;53.048;8.732;2023-04-07T08:00:29;101902.03;;;6.94;66.76
43745;BME280;29359;53.048;8.732;2023-04-07T08:02:31;101900.31;;;7.01;66.49
43745;BME280;29359;53.048;8.732;2023-04-07T08:04:34;101902.97;;;7.08;66.43
43745;BME280;29359;53.048;8.732;2023-04-07T08:06:36;101908.22;;;7.14;66.63
43745;BME280;29359;53.048;8.732;2023-04-07T08:08:38;101909.09;;;7.13;67.40
43745;BME280;29359;53.048;8.732;2023-04-07T08:10:40;101916.13;;;7.25;66.99
43745;BME280;29359;53.048;8.732;2023-04-07T08:12:41;101907.38;;;7.26;67.63
43745;BME280;29359;53.048;8.732;2023-04-07T08:14:43;101912.66;;;7.37;67.20
43745;BME280;29359;53.048;8.732;2023-04-07T08:16:45;101915.34;;;7.47;65.60
43745;BME280;29359;53.048;8.732;2023-04-07T08:18:46;101921.47;;;7.59;64.74
43745;BME280;29359;53.048;8.732;2023-04-07T08:20:48;101925.88;;;7.67;63.84
43745;BME280;29359;53.048;8.732;2023-04-07T08:22:50;101921.47;;;7.71;65.41
43745;BME280;29359;53.048;8.732;2023-04-07T08:24:51;101916.22;;;7.77;65.54
43745;BME280;29359;53.048;8.732;2023-04-07T08:26:53;101919.75;;;7.90;62.63
43745;BME280;29359;53.048;8.732;2023-04-07T08:28:54;101919.75;;;8.00;62.02
43745;BME280;29359;53.048;8.732;2023-04-07T08:30:56;101916.25;;;8.07;64.24
43745;BME280;29359;53.048;8.732;2023-04-07T08:32:58;101926.75;;;8.16;63.15
43745;BME280;29359;53.048;8.732;2023-04-07T08:35:00;101919.72;;;8.23;62.82
43745;BME280;29359;53.048;8.732;2023-04-07T08:37:01;101922.38;;;8.31;61.95
43745;BME280;29359;53.048;8.732;2023-04-07T08:39:03;101918.88;;;8.39;61.54
43745;BME280;29359;53.048;8.732;2023-04-07T08:41:12;101916.22;;;8.50;62.62
43745;BME280;29359;53.048;8.732;2023-04-07T08:43:18;101928.47;;;8.59;61.76
43745;BME280;29359;53.048;8.732;2023-04-07T08:45:20;101925.88;;;8.56;64.69
43745;BME280;29359;53.048;8.732;2023-04-07T08:47:24;101922.34;;;8.63;63.18
43745;BME280;29359;53.048;8.732;2023-04-07T08:49:27;101932.00;;;8.71;62.14
43745;BME280;29359;53.048;8.732;2023-04-07T08:51:31;101933.72;;;8.81;60.49
43745;BME280;29359;53.048;8.732;2023-04-07T08:53:47;101927.50;;;8.93;59.09
43745;BME280;29359;53.048;8.732;2023-04-07T08:55:51;101930.97;;;9.03;60.74
43745;BME280;29359;53.048;8.732;2023-04-07T08:57:53;101929.22;;;9.11;61.48
43745;BME280;29359;53.048;8.732;2023-04-07T08:59:55;101939.72;;;9.17;61.11
43745;BME280;29359;53.048;8.732;2023-04-07T09:01:58;101932.66;;;9.27;59.67
43745;BME280;29359;53.048;8.732;2023-04-07T09:04:01;101928.19;;;9.36;57.62
43745;BME280;29359;53.048;8.732;2023-04-07T09:06:04;101929.00;;;9.48;54.76
43745;BME280;29359;53.048;8.732;2023-04-07T09:08:05;101930.75;;;9.55;57.97
43745;BME280;29359;53.048;8.732;2023-04-07T09:10:07;101928.94;;;9.63;57.17
43745;BME280;29359;53.048;8.732;2023-04-07T09:12:09;101929.75;;;9.71;57.43
43745;BME280;29359;53.048;8.732;2023-04-07T09:14:11;101928.78;;;9.80;57.40
43745;BME280;29359;53.048;8.732;2023-04-07T09:16:13;101934.03;;;9.86;55.90
43745;BME280;29359;53.048;8.732;2023-04-07T09:18:15;101932.19;;;9.94;54.12
43745;BME280;29359;53.048;8.732;2023-04-07T09:20:17;101933.03;;;10.02;54.37
43745;BME280;29359;53.048;8.732;2023-04-07T09:24:39;101940.09;;;9.95;61.62
43745;BME280;29359;53.048;8.732;2023-04-07T09:26:40;101947.13;;;10.01;61.59
43745;BME280;29359;53.048;8.732;2023-04-07T09:28:46;101932.16;;;10.03;61.73
43745;BME280;29359;53.048;8.732;2023-04-07T09:30:52;101942.56;;;10.17;60.26
43745;BME280;29359;53.048;8.732;2023-04-07T09:32:55;101940.72;;;10.29;59.99
43745;BME280;29359;53.048;8.732;2023-04-07T09:34:57;101939.84;;;10.30;62.04
43745;BME280;29359;53.048;8.732;2023-04-07T09:37:00;101928.28;;;10.44;58.95
43745;BME280;29359;53.048;8.732;2023-04-07T09:39:07;101930.81;;;10.56;55.94
43745;BME280;29359;53.048;8.732;2023-04-07T09:41:13;101930.66;;;10.68;53.23
43745;BME280;29359;53.048;8.732;2023-04-07T09:43:17;101930.56;;;10.77;53.75
43745;BME280;29359;53.048;8.732;2023-04-07T09:45:26;101936.66;;;10.85;54.22
43745;BME280;29359;53.048;8.732;2023-04-07T09:47:36;101934.94;;;10.78;60.64
43745;BME280;29359;53.048;8.732;2023-04-07T09:49:52;101939.28;;;10.87;59.91
43745;BME280;29359;53.048;8.732;2023-04-07T09:51:56;101932.13;;;10.95;58.91
43745;BME280;29359;53.048;8.732;2023-04-07T09:53:58;101932.88;;;11.06;54.67
43745;BME280;29359;53.048;8.732;2023-04-07T09:56:00;101935.41;;;11.14;56.28
43745;BME280;29359;53.048;8.732;2023-04-07T09:58:03;101938.06;;;11.14;58.52
43745;BME280;29359;53.048;8.732;2023-04-07T10:00:05;101930.13;;;11.14;58.18
43745;BME280;29359;53.048;8.732;2023-04-07T10:02:07;101927.38;;;11.21;54.89
43745;BME280;29359;53.048;8.732;2023-04-07T10:04:10;101929.94;;;11.29;52.45
43745;BME280;29359;53.048;8.732;2023-04-07T10:06:12;101939.53;;;11.36;56.46
43745;BME280;29359;53.048;8.732;2023-04-07T10:08:14;101936.00;;;11.36;59.94
43745;BME280;29359;53.048;8.732;2023-04-07T10:10:16;101939.38;;;11.47;58.73
43745;BME280;29359;53.048;8.732;2023-04-07T10:12:18;101932.19;;;11.56;58.21
43745;BME280;29359;53.048;8.732;2023-04-07T10:14:20;101932.91;;;11.66;57.08
43745;BME280;29359;53.048;8.732;2023-04-07T10:16:23;101932.81;;;11.75;55.83
43745;BME280;29359;53.048;8.732;2023-04-07T10:18:28;101933.66;;;11.77;58.97
43745;BME280;29359;53.048;8.732;2023-04-07T10:20:32;101939.84;;;11.78;54.46
43745;BME280;29359;53.048;8.732;2023-04-07T10:22:34;101938.81;;;11.88;50.60
43745;BME280;29359;53.048;8.732;2023-04-07T10:25:03;101935.03;;;12.03;48.64
43745;BME280;29359;53.048;8.732;2023-04-07T10:27:09;101938.38;;;12.15;50.90
43745;BME280;29359;53.048;8.732;2023-04-07T10:29:13;101943.66;;;12.15;56.34
43745;BME280;29359;53.048;8.732;2023-04-07T10:31:16;101945.41;;;12.16;57.14
43745;BME280;29359;53.048;8.732;2023-04-07T10:33:45;101937.22;;;12.30;54.92
43745;BME280;29359;53.048;8.732;2023-04-07T10:36:05;101949.66;;;12.26;58.88
43745;BME280;29359;53.048;8.732;2023-04-07T10:49:08;101950.69;;;13.12;53.23
43745;BME280;29359;53.048;8.732;2023-04-07T10:51:12;101955.53;;;13.33;51.33
43745;BME280;29359;53.048;8.732;2023-04-07T10:53:18;101954.97;;;13.59;51.42
43745;BME280;29359;53.048;8.732;2023-04-07T10:55:31;101946.41;;;13.85;51.57
43745;BME280;29359;53.048;8.732;2023-04-07T10:57:32;101947.69;;;14.06;54.11
43745;BME280;29359;53.048;8.732;2023-04-07T10:59:35;101943.38;;;14.36;48.46
43745;BME280;29359;53.048;8.732;2023-04-07T11:01:37;101946.25;;;14.62;50.94
43745;BME280;29359;53.048;8.732;2023-04-07T11:03:40;101944.81;;;14.83;52.82
43745;BME280;29359;53.048;8.732;2023-04-07T11:05:42;101943.28;;;15.35;48.46